Time;durP1;ratioP1;P1;durP2;ratioP2;P2;SDS_P1;SDS_P2;PMS_P1;PMS_P2;Temp;Humidity;BMP_temperature;BMP_pressure;BME280_temperature;BME280_humidity;BME280_pressure;Samples;Min_cycle;Max_cycle;Signal;HPM_P1;HPM_P2
2022/03/14 00:00:47;;;;;;;20.50;11.07;;;4.80;65.40;;;;;;4970039;28;20398;-85
2022/03/14 00:03:13;;;;;;;20.27;11.32;;;4.80;65.70;;;;;;4971489;28;20039;-86
2022/03/14 00:05:39;;;;;;;22.27;12.40;;;4.80;65.30;;;;;;4971878;28;20114;-85
2022/03/14 00:08:06;;;;;;;27.00;13.05;;;4.80;65.40;;;;;;4970184;28;20113;-85
2022/03/14 00:10:33;;;;;;;21.30;12.45;;;4.90;66.50;;;;;;4967702;28;20311;-85
2022/03/14 00:13:00;;;;;;;25.05;13.68;;;4.80;71.00;;;;;;4971022;28;20233;-85
2022/03/14 00:15:30;;;;;;;29.50;13.82;;;4.80;70.30;;;;;;4971465;28;20410;-85
2022/03/14 00:17:56;;;;;;;22.02;11.93;;;4.70;70.50;;;;;;4970485;28;20074;-85
2022/03/14 00:20:22;;;;;;;24.48;12.05;;;4.60;72.00;;;;;;4971036;28;20434;-85
2022/03/14 00:22:48;;;;;;;22.35;12.13;;;4.70;71.10;;;;;;4969611;28;20485;-86
2022/03/14 00:25:14;;;;;;;22.92;11.77;;;4.70;73.10;;;;;;4971886;28;20022;-85
2022/03/14 00:27:40;;;;;;;22.92;12.45;;;4.80;70.30;;;;;;4971645;28;20035;-84
2022/03/14 00:30:09;;;;;;;22.15;12.23;;;4.80;70.20;;;;;;4971069;28;20127;-84
2022/03/14 00:32:35;;;;;;;19.48;10.68;;;4.80;71.00;;;;;;4965124;28;20030;-86
2022/03/14 00:35:07;;;;;;;22.67;12.02;;;4.80;70.10;;;;;;4970085;28;20155;-86
2022/03/14 00:37:33;;;;;;;22.20;11.95;;;4.70;71.00;;;;;;4969962;28;20390;-86
2022/03/14 00:39:59;;;;;;;21.23;11.13;;;4.70;70.70;;;;;;4971151;28;20023;-86
2022/03/14 00:42:25;;;;;;;20.83;10.60;;;4.60;71.40;;;;;;4967955;28;20504;-85
2022/03/14 00:44:51;;;;;;;23.98;11.05;;;4.60;71.70;;;;;;4966252;28;20386;-85
2022/03/14 00:47:19;;;;;;;21.52;12.27;;;4.60;71.30;;;;;;4971035;28;20126;-85
2022/03/14 00:49:46;;;;;;;20.80;11.00;;;4.60;72.10;;;;;;4970649;28;20594;-85
2022/03/14 00:52:12;;;;;;;24.67;12.20;;;4.60;71.50;;;;;;4969113;28;20462;-87
2022/03/14 00:54:38;;;;;;;18.48;10.90;;;4.60;72.50;;;;;;4970410;28;20046;-86
2022/03/14 00:57:04;;;;;;;23.48;11.27;;;4.70;71.10;;;;;;4970277;28;20037;-85
2022/03/14 00:59:30;;;;;;;27.80;14.38;;;4.70;72.80;;;;;;4970696;28;20034;-86
2022/03/14 01:01:56;;;;;;;24.05;12.40;;;4.60;75.30;;;;;;4970292;28;20042;-84
2022/03/14 01:04:22;;;;;;;22.70;12.50;;;4.60;74.10;;;;;;4969979;28;20039;-86
2022/03/14 01:06:48;;;;;;;20.73;11.30;;;4.70;72.70;;;;;;4971102;28;20110;-86
2022/03/14 01:09:15;;;;;;;32.33;14.70;;;4.80;72.00;;;;;;4967629;28;20061;-87
2022/03/14 01:11:43;;;;;;;25.98;11.88;;;5.00;69.90;;;;;;4970756;28;20034;-86
2022/03/14 01:14:09;;;;;;;22.35;11.40;;;5.10;68.70;;;;;;4970631;28;20041;-86
2022/03/14 01:16:37;;;;;;;23.95;10.50;;;5.40;67.60;;;;;;4969167;28;20529;-85
2022/03/14 01:19:03;;;;;;;23.58;11.95;;;5.80;64.20;;;;;;4969677;28;20031;-85
2022/03/14 01:21:29;;;;;;;21.58;10.40;;;5.80;63.00;;;;;;4969521;28;20514;-86
2022/03/14 01:23:56;;;;;;;24.50;12.25;;;6.00;61.90;;;;;;4969299;28;20030;-85
2022/03/14 01:26:22;;;;;;;20.00;10.80;;;6.10;61.90;;;;;;4970946;28;20031;-85
2022/03/14 01:28:48;;;;;;;27.58;12.43;;;6.10;61.40;;;;;;4970750;28;20034;-84
2022/03/14 01:31:14;;;;;;;18.27;9.90;;;6.20;61.80;;;;;;4968161;28;20039;-86
2022/03/14 01:33:40;;;;;;;25.95;11.75;;;6.10;63.50;;;;;;4967099;28;20307;-85
2022/03/14 01:36:05;;;;;;;22.25;11.98;;;6.20;64.60;;;;;;4970519;28;20034;-85
2022/03/14 01:38:31;;;;;;;21.75;10.82;;;6.30;63.90;;;;;;4970784;28;20035;-85
2022/03/14 01:40:57;;;;;;;22.42;12.00;;;6.40;65.20;;;;;;4969810;28;20106;-86
2022/03/14 01:43:25;;;;;;;25.20;13.32;;;6.60;64.40;;;;;;4968351;28;20094;-86
2022/03/14 01:45:55;;;;;;;20.30;10.98;;;6.60;64.40;;;;;;4970331;28;20042;-86
2022/03/14 01:48:21;;;;;;;20.17;11.57;;;6.50;64.50;;;;;;4970391;28;20359;-85
2022/03/14 01:50:46;;;;;;;23.75;12.48;;;6.50;64.80;;;;;;4970015;28;20035;-86
2022/03/14 01:53:12;;;;;;;19.00;11.60;;;6.50;65.60;;;;;;4967666;28;20046;-85
2022/03/14 01:55:38;;;;;;;24.08;12.48;;;6.60;65.00;;;;;;4970330;28;20061;-85
2022/03/14 01:58:04;;;;;;;33.28;18.30;;;6.60;65.10;;;;;;4958215;28;20023;-86
2022/03/14 02:00:30;;;;;;;24.55;12.15;;;6.60;65.50;;;;;;4969442;28;20137;-85
2022/03/14 02:02:56;;;;;;;28.38;11.82;;;6.60;65.60;;;;;;4967307;28;20044;-85
2022/03/14 02:05:21;;;;;;;24.67;12.52;;;6.50;66.70;;;;;;4968743;28;20470;-86
2022/03/14 02:07:47;;;;;;;20.15;10.23;;;6.50;66.50;;;;;;4969511;28;20034;-85
2022/03/14 02:10:13;;;;;;;22.85;11.38;;;6.50;66.50;;;;;;4970149;28;20386;-85
2022/03/14 02:12:44;;;;;;;22.52;12.80;;;6.50;66.60;;;;;;4970126;28;20458;-86
2022/03/14 02:15:11;;;;;;;24.03;10.87;;;6.40;67.10;;;;;;4970185;28;20113;-84
2022/03/14 02:17:37;;;;;;;18.98;11.30;;;6.40;67.40;;;;;;4968242;28;20280;-87
2022/03/14 02:20:03;;;;;;;23.63;11.68;;;6.30;68.30;;;;;;4969914;28;20113;-85
2022/03/14 02:22:29;;;;;;;24.13;11.35;;;6.20;69.50;;;;;;4969389;28;20033;-85
2022/03/14 02:24:54;;;;;;;26.20;12.65;;;6.10;69.50;;;;;;4970089;28;20370;-85
2022/03/14 02:27:22;;;;;;;27.73;13.43;;;6.20;70.30;;;;;;4984339;28;20034;-85
2022/03/14 02:29:47;;;;;;;24.35;12.50;;;6.20;70.50;;;;;;4968508;28;20023;-84
2022/03/14 02:32:13;;;;;;;27.17;13.63;;;6.30;71.20;;;;;;4969497;28;20487;-85
2022/03/14 02:34:40;;;;;;;34.08;11.75;;;6.20;72.10;;;;;;4969726;28;20034;-85
2022/03/14 02:37:06;;;;;;;28.30;13.60;;;6.20;73.10;;;;;;4967690;28;20038;-85
2022/03/14 02:39:33;;;;;;;23.35;13.15;;;6.00;73.90;;;;;;4952931;28;20031;-85
2022/03/14 02:42:01;;;;;;;22.92;12.40;;;5.90;76.70;;;;;;4963923;28;20114;-84
2022/03/14 02:44:28;;;;;;;23.63;12.55;;;5.80;78.00;;;;;;4971115;28;20174;-86
2022/03/14 02:46:53;;;;;;;25.52;13.25;;;5.70;79.10;;;;;;4973102;28;20062;-84
2022/03/14 02:49:19;;;;;;;24.67;12.05;;;5.80;81.60;;;;;;4972680;28;20069;-85
2022/03/14 02:51:47;;;;;;;25.08;11.95;;;6.00;81.60;;;;;;4971523;28;20054;-86
2022/03/14 02:54:13;;;;;;;20.58;10.30;;;6.00;82.70;;;;;;4971716;28;20026;-84
2022/03/14 02:56:40;;;;;;;19.77;10.25;;;6.10;83.40;;;;;;4973150;28;20035;-85
2022/03/14 02:59:08;;;;;;;19.70;11.18;;;6.00;84.00;;;;;;4972811;28;20066;-85
2022/03/14 03:01:34;;;;;;;22.45;12.23;;;6.00;84.70;;;;;;4972078;28;20045;-84
2022/03/14 03:04:00;;;;;;;20.42;10.85;;;6.00;85.70;;;;;;4972495;28;20069;-84
2022/03/14 03:06:26;;;;;;;21.25;10.43;;;6.00;86.40;;;;;;4971214;28;20034;-86
2022/03/14 03:08:53;;;;;;;28.35;10.98;;;6.00;85.80;;;;;;4972557;28;20129;-86
2022/03/14 03:11:22;;;;;;;22.65;11.18;;;6.00;86.40;;;;;;4972277;28;20533;-85
2022/03/14 03:13:49;;;;;;;18.23;10.57;;;5.90;87.20;;;;;;4973297;28;20488;-86
2022/03/14 03:16:16;;;;;;;24.48;11.65;;;5.80;89.10;;;;;;4970857;28;20034;-86
2022/03/14 03:18:44;;;;;;;24.05;12.07;;;5.80;89.20;;;;;;4972677;28;20591;-85
2022/03/14 03:21:09;;;;;;;24.80;12.82;;;5.70;90.00;;;;;;4972175;28;20118;-85
2022/03/14 03:23:35;;;;;;;25.48;11.43;;;5.60;90.60;;;;;;4970947;28;20503;-85
2022/03/14 03:26:04;;;;;;;20.63;10.68;;;5.80;90.60;;;;;;4972346;28;20037;-85
2022/03/14 03:28:35;;;;;;;25.83;12.30;;;5.80;90.60;;;;;;4969338;28;20109;-84
2022/03/14 03:31:16;;;;;;;;;;;5.80;90.50;;;;;;4971639;28;20126;-85
2022/03/14 03:33:43;;;;;;;19.25;10.13;;;5.90;90.60;;;;;;4970101;28;19914;-84
2022/03/14 03:36:08;;;;;;;20.70;12.52;;;5.90;90.70;;;;;;4970861;28;20042;-85
2022/03/14 03:38:35;;;;;;;19.73;11.98;;;5.80;90.70;;;;;;4970896;28;20117;-85
2022/03/14 03:41:01;;;;;;;18.75;10.77;;;5.80;91.30;;;;;;4972268;28;20035;-85
2022/03/14 03:43:27;;;;;;;22.65;12.35;;;5.80;91.50;;;;;;4971928;28;20034;-84
2022/03/14 03:45:52;;;;;;;19.63;10.63;;;5.80;91.70;;;;;;4971072;28;20039;-85
2022/03/14 03:48:18;;;;;;;15.38;8.48;;;5.80;92.20;;;;;;4969793;28;20367;-84
2022/03/14 03:50:45;;;;;;;13.10;6.82;;;6.10;93.10;;;;;;4970866;28;20034;-85
2022/03/14 03:53:11;;;;;;;10.95;5.65;;;6.00;93.70;;;;;;4971980;28;20030;-85
2022/03/14 03:55:36;;;;;;;8.70;4.47;;;6.20;94.50;;;;;;4971100;28;20077;-85
2022/03/14 03:58:03;;;;;;;7.15;3.55;;;6.20;94.40;;;;;;4969389;28;20031;-85
2022/03/14 04:00:28;;;;;;;4.80;3.17;;;6.60;94.40;;;;;;4971005;28;20042;-85
2022/03/14 04:02:54;;;;;;;4.00;2.00;;;6.70;94.50;;;;;;4971497;28;20371;-85
2022/03/14 04:05:21;;;;;;;9.65;1.70;;;6.80;94.00;;;;;;4983114;28;20098;-85
2022/03/14 04:07:46;;;;;;;2.90;1.70;;;6.90;94.20;;;;;;4968190;28;20065;-85
2022/03/14 04:10:14;;;;;;;3.95;1.70;;;6.90;94.30;;;;;;4970568;28;20456;-86
2022/03/14 04:12:40;;;;;;;1.50;0.80;;;6.90;94.50;;;;;;4971673;28;20451;-86
2022/03/14 04:15:07;;;;;;;2.03;0.75;;;6.90;94.80;;;;;;4971694;28;20093;-85
2022/03/14 04:17:35;;;;;;;1.85;0.88;;;7.00;94.40;;;;;;4971301;28;20525;-85
2022/03/14 04:20:05;;;;;;;0.80;0.60;;;6.90;94.30;;;;;;4970008;28;20122;-85
2022/03/14 04:22:32;;;;;;;2.55;1.48;;;6.90;94.50;;;;;;4971340;28;20125;-85
2022/03/14 04:25:01;;;;;;;1.02;0.70;;;6.90;94.40;;;;;;4971840;28;20118;-85
2022/03/14 04:27:27;;;;;;;1.85;0.90;;;6.90;94.40;;;;;;4971144;28;20031;-85
2022/03/14 04:29:53;;;;;;;1.75;0.80;;;6.90;94.50;;;;;;4969260;28;20037;-85
2022/03/14 04:32:18;;;;;;;0.90;0.50;;;6.80;94.30;;;;;;4970724;28;20679;-85
2022/03/14 04:34:44;;;;;;;0.60;0.60;;;6.80;94.60;;;;;;4971454;28;20485;-84
2022/03/14 04:37:13;;;;;;;1.05;0.80;;;6.80;94.70;;;;;;4971045;28;20058;-85
2022/03/14 04:39:40;;;;;;;1.55;0.70;;;6.80;95.20;;;;;;4963737;28;20033;-84
2022/03/14 04:42:06;;;;;;;1.95;0.80;;;6.80;94.90;;;;;;4969322;28;20403;-85
2022/03/14 04:44:32;;;;;;;2.05;0.40;;;6.80;95.10;;;;;;4970328;28;20092;-84
2022/03/14 04:46:58;;;;;;;0.70;0.70;;;6.90;94.90;;;;;;4970970;28;20027;-85
2022/03/14 04:49:24;;;;;;;1.45;0.85;;;6.90;94.70;;;;;;4967155;28;20138;-84
2022/03/14 04:51:50;;;;;;;1.38;0.70;;;6.90;94.70;;;;;;4954619;28;20038;-85
2022/03/14 04:54:16;;;;;;;0.70;0.50;;;6.80;95.10;;;;;;4969160;28;20509;-84
2022/03/14 04:56:41;;;;;;;1.05;0.70;;;6.80;95.00;;;;;;4969661;28;20039;-85
2022/03/14 04:59:07;;;;;;;1.60;0.80;;;6.80;95.20;;;;;;4970896;28;20035;-84
2022/03/14 05:01:33;;;;;;;0.90;0.60;;;6.70;95.10;;;;;;4970455;28;20031;-85
2022/03/14 05:03:58;;;;;;;1.73;0.73;;;6.70;95.50;;;;;;4969264;28;20554;-84
2022/03/14 05:06:24;;;;;;;1.25;0.77;;;6.60;95.20;;;;;;4969287;28;20027;-85
2022/03/14 05:08:50;;;;;;;1.27;0.52;;;6.70;95.20;;;;;;4969483;28;20039;-82
2022/03/14 05:11:16;;;;;;;1.20;0.75;;;6.60;94.90;;;;;;4970414;28;20066;-82
2022/03/14 05:13:42;;;;;;;0.40;0.30;;;6.60;95.20;;;;;;4969649;28;20109;-85
2022/03/14 05:16:08;;;;;;;1.55;0.60;;;6.50;95.80;;;;;;4970846;28;20686;-86
2022/03/14 05:18:38;;;;;;;1.77;0.80;;;6.60;95.40;;;;;;4966190;28;20027;-84
2022/03/14 05:21:04;;;;;;;0.77;0.55;;;6.60;95.30;;;;;;4971117;28;20815;-85
2022/03/14 05:23:30;;;;;;;0.90;0.50;;;6.50;95.50;;;;;;4970687;28;20034;-86
2022/03/14 05:25:56;;;;;;;1.33;0.60;;;6.50;95.40;;;;;;4970700;28;20043;-86
2022/03/14 05:28:22;;;;;;;0.40;0.40;;;6.50;95.10;;;;;;4969710;28;20035;-86
2022/03/14 05:30:47;;;;;;;4.70;1.05;;;6.50;94.90;;;;;;4976169;28;20041;-86
2022/03/14 05:33:13;;;;;;;0.63;0.32;;;6.40;94.90;;;;;;4970510;28;20065;-86
2022/03/14 05:35:39;;;;;;;0.85;0.68;;;6.40;94.90;;;;;;4970601;28;20081;-86
2022/03/14 05:38:05;;;;;;;1.30;0.50;;;6.40;94.80;;;;;;4970541;28;20775;-85
2022/03/14 05:40:30;;;;;;;0.60;0.30;;;6.40;94.40;;;;;;4970279;28;20039;-85
2022/03/14 05:42:57;;;;;;;1.00;0.30;;;6.50;94.20;;;;;;4968047;28;20027;-85
2022/03/14 05:45:23;;;;;;;0.75;0.45;;;6.40;94.60;;;;;;4970792;28;20034;-87
2022/03/14 05:47:50;;;;;;;0.60;0.40;;;6.40;94.30;;;;;;4970756;28;20046;-88
2022/03/14 05:50:16;;;;;;;0.30;0.30;;;6.40;94.20;;;;;;4962814;28;20121;-85
2022/03/14 05:52:42;;;;;;;0.98;0.40;;;6.40;94.00;;;;;;4979691;28;20034;-86
2022/03/14 05:55:08;;;;;;;0.80;0.60;;;6.40;93.90;;;;;;4969514;28;20062;-87
2022/03/14 05:57:35;;;;;;;0.40;0.40;;;6.50;93.70;;;;;;4970139;28;20471;-86
2022/03/14 06:00:02;;;;;;;0.30;0.30;;;6.40;93.90;;;;;;4970671;28;20545;-85
2022/03/14 06:02:28;;;;;;;0.52;0.32;;;6.40;93.60;;;;;;4969669;28;20050;-85
2022/03/14 06:04:54;;;;;;;0.88;0.40;;;6.40;93.80;;;;;;4968996;28;20047;-86
2022/03/14 06:07:21;;;;;;;0.25;0.25;;;6.30;93.70;;;;;;4968863;28;20105;-86
2022/03/14 06:09:50;;;;;;;0.95;0.45;;;6.40;93.70;;;;;;4969918;28;20034;-87
2022/03/14 06:12:29;;;;;;;0.30;0.30;;;6.40;93.70;;;;;;4964910;28;20035;-86
2022/03/14 06:15:00;;;;;;;0.30;0.20;;;6.40;94.00;;;;;;4966216;28;20030;-86
2022/03/14 06:17:26;;;;;;;0.30;0.30;;;6.30;95.00;;;;;;4983924;28;20586;-86
2022/03/14 06:19:52;;;;;;;0.50;0.30;;;6.20;95.00;;;;;;4971976;28;20098;-87
2022/03/14 06:22:20;;;;;;;0.50;0.50;;;6.20;95.20;;;;;;4961366;28;20062;-85
2022/03/14 06:24:48;;;;;;;0.40;0.40;;;6.10;95.40;;;;;;4972619;28;20482;-86
2022/03/14 06:27:19;;;;;;;0.52;0.52;;;6.10;95.20;;;;;;4973386;28;20135;-86
2022/03/14 06:29:45;;;;;;;0.77;0.40;;;6.20;95.10;;;;;;4973418;28;20498;-88
2022/03/14 06:32:11;;;;;;;1.42;0.52;;;6.10;95.40;;;;;;4973641;28;20045;-84
2022/03/14 06:34:38;;;;;;;0.60;0.50;;;6.10;95.50;;;;;;4973138;28;20027;-87
2022/03/14 06:37:06;;;;;;;0.30;0.30;;;6.00;95.80;;;;;;4972164;28;20082;-87
2022/03/14 06:39:32;;;;;;;1.30;0.98;;;5.90;95.90;;;;;;4973295;28;20220;-89
2022/03/14 06:42:00;;;;;;;0.55;0.40;;;5.90;96.40;;;;;;4973779;28;20113;-84
2022/03/14 06:44:27;;;;;;;1.42;0.60;;;5.80;97.30;;;;;;4972879;28;20418;-87
2022/03/14 06:46:53;;;;;;;1.05;0.65;;;5.70;97.30;;;;;;4969606;28;20034;-87
2022/03/14 06:49:20;;;;;;;1.35;0.60;;;5.60;98.20;;;;;;4969353;28;20058;-86
2022/03/14 06:51:47;;;;;;;1.05;0.80;;;5.50;98.90;;;;;;4968473;28;20118;-88
2022/03/14 06:54:12;;;;;;;1.00;0.90;;;5.50;99.00;;;;;;4974637;28;20019;-87
2022/03/14 06:56:38;;;;;;;1.25;0.70;;;5.50;99.30;;;;;;4972065;28;20481;-88
2022/03/14 06:59:04;;;;;;;2.25;0.90;;;5.60;99.30;;;;;;4972215;28;20027;-86
2022/03/14 07:01:30;;;;;;;1.65;1.05;;;5.60;99.30;;;;;;4971334;28;20094;-88
2022/03/14 07:03:56;;;;;;;1.83;0.88;;;5.60;99.50;;;;;;4972176;28;20045;-87
2022/03/14 07:06:22;;;;;;;2.92;0.80;;;5.70;99.70;;;;;;4971474;28;20035;-87
2022/03/14 07:08:48;;;;;;;0.80;0.65;;;5.80;99.40;;;;;;4970556;28;20050;-86
2022/03/14 07:11:13;;;;;;;1.52;0.90;;;6.00;99.20;;;;;;4972693;28;20054;-87
2022/03/14 07:13:39;;;;;;;2.60;1.67;;;6.10;98.80;;;;;;4971673;28;20034;-88
2022/03/14 07:16:05;;;;;;;0.80;0.70;;;6.10;98.40;;;;;;4972541;28;20035;-87
2022/03/14 07:18:30;;;;;;;9.63;1.08;;;6.20;98.20;;;;;;4986746;28;20035;-88
2022/03/14 07:20:57;;;;;;;1.50;0.77;;;6.40;96.50;;;;;;4967736;28;20032;-87
2022/03/14 07:23:23;;;;;;;4.60;0.95;;;6.40;96.30;;;;;;4970670;28;20031;-87
2022/03/14 07:25:52;;;;;;;0.60;0.60;;;6.50;96.00;;;;;;4971432;28;20406;-85
2022/03/14 07:28:18;;;;;;;0.80;0.70;;;6.60;95.90;;;;;;4972673;28;20031;-87
2022/03/14 07:30:45;;;;;;;1.00;0.70;;;6.60;95.20;;;;;;4971255;28;20074;-87
2022/03/14 07:33:11;;;;;;;0.75;0.70;;;6.70;94.80;;;;;;4972391;28;20489;-86
2022/03/14 07:35:37;;;;;;;1.40;0.82;;;6.80;94.50;;;;;;4971030;28;20113;-87
2022/03/14 07:38:03;;;;;;;2.47;1.88;;;6.90;93.60;;;;;;4969991;28;20695;-86
2022/03/14 07:40:30;;;;;;;1.77;0.73;;;6.90;92.40;;;;;;4970316;28;20050;-87
2022/03/14 07:42:58;;;;;;;2.80;1.00;;;7.10;92.70;;;;;;4972823;28;20102;-86
2022/03/14 07:45:24;;;;;;;1.25;0.90;;;7.10;93.20;;;;;;4971141;28;20039;-87
2022/03/14 07:47:51;;;;;;;1.75;1.30;;;7.20;91.70;;;;;;4970510;28;20027;-87
2022/03/14 07:50:18;;;;;;;1.02;0.70;;;7.20;92.00;;;;;;4971909;28;20026;-86
2022/03/14 07:52:44;;;;;;;2.30;0.60;;;7.30;91.50;;;;;;4970018;28;20027;-87
2022/03/14 07:55:11;;;;;;;0.70;0.65;;;7.40;90.20;;;;;;4971466;28;20034;-85
2022/03/14 07:57:38;;;;;;;1.65;0.70;;;7.40;90.40;;;;;;4970355;28;20070;-86
2022/03/14 08:00:08;;;;;;;1.73;0.70;;;7.50;89.80;;;;;;4969815;28;20037;-85
2022/03/14 08:02:33;;;;;;;1.20;0.70;;;7.50;90.30;;;;;;4968996;28;20042;-85
2022/03/14 08:04:59;;;;;;;1.17;0.88;;;7.60;89.70;;;;;;4970013;28;20026;-83
2022/03/14 08:07:28;;;;;;;0.60;0.60;;;7.70;89.80;;;;;;4964281;28;20034;-83
2022/03/14 08:09:55;;;;;;;0.82;0.75;;;7.80;89.00;;;;;;4964215;28;20085;-85
2022/03/14 08:12:22;;;;;;;1.75;0.70;;;7.90;88.10;;;;;;4969785;28;20259;-85
2022/03/14 08:14:49;;;;;;;1.05;0.82;;;7.90;87.30;;;;;;4968657;28;20446;-84
2022/03/14 08:17:16;;;;;;;0.73;0.60;;;8.10;88.10;;;;;;4970468;28;20050;-81
2022/03/14 08:19:42;;;;;;;1.83;0.70;;;8.10;83.90;;;;;;4969384;28;20023;-83
2022/03/14 08:22:07;;;;;;;1.63;0.75;;;8.30;84.00;;;;;;4966656;28;20094;-84
2022/03/14 08:24:33;;;;;;;0.60;0.50;;;8.30;82.00;;;;;;4970171;28;20039;-83
2022/03/14 08:26:59;;;;;;;1.55;0.55;;;8.30;81.20;;;;;;4966645;28;20082;-83
2022/03/14 08:29:25;;;;;;;0.75;0.52;;;8.60;81.10;;;;;;4968183;28;20049;-83
2022/03/14 08:31:50;;;;;;;0.95;0.50;;;8.60;77.50;;;;;;4968988;28;20047;-83
2022/03/14 08:34:16;;;;;;;1.15;0.50;;;8.60;76.60;;;;;;4967497;28;20034;-84
2022/03/14 08:36:42;;;;;;;0.70;0.50;;;8.80;77.80;;;;;;4969157;28;20031;-84
2022/03/14 08:39:09;;;;;;;0.68;0.50;;;8.90;76.70;;;;;;4970523;28;20162;-85
2022/03/14 08:41:37;;;;;;;0.90;0.60;;;9.10;75.90;;;;;;4970493;28;20517;-81
2022/03/14 08:44:07;;;;;;;0.40;0.40;;;9.10;75.50;;;;;;4972170;28;20050;-83
2022/03/14 08:46:34;;;;;;;0.38;0.38;;;9.40;74.40;;;;;;4969976;28;20030;-83
2022/03/14 08:49:01;;;;;;;5.47;0.40;;;9.50;71.20;;;;;;4970134;28;20027;-83
2022/03/14 08:51:27;;;;;;;2.03;0.60;;;9.60;70.90;;;;;;4969763;28;20035;-81
2022/03/14 08:53:53;;;;;;;0.80;0.60;;;9.80;71.70;;;;;;4968062;28;20037;-82
2022/03/14 08:56:19;;;;;;;0.93;0.55;;;9.80;70.00;;;;;;4969899;28;20051;-84
2022/03/14 08:58:45;;;;;;;0.60;0.50;;;9.80;70.70;;;;;;4964593;28;20110;-84
2022/03/14 09:01:11;;;;;;;0.55;0.55;;;9.70;70.50;;;;;;4969182;28;20045;-82
2022/03/14 09:03:38;;;;;;;3.58;1.55;;;9.60;73.20;;;;;;4969278;28;20055;-79
2022/03/14 09:06:04;;;;;;;0.50;0.50;;;9.60;71.40;;;;;;4966871;28;20045;-80
2022/03/14 09:08:31;;;;;;;0.70;0.68;;;9.50;72.40;;;;;;4968258;28;20372;-81
2022/03/14 09:11:00;;;;;;;0.70;0.60;;;9.80;72.30;;;;;;4967844;28;20534;-80
2022/03/14 09:13:26;;;;;;;0.40;0.40;;;9.70;71.40;;;;;;4966821;28;20518;-80
2022/03/14 09:15:52;;;;;;;0.82;0.77;;;10.00;69.80;;;;;;4967943;28;20181;-80
2022/03/14 09:18:20;;;;;;;0.95;0.60;;;10.00;69.50;;;;;;4967961;28;20317;-79
2022/03/14 09:20:47;;;;;;;1.45;0.70;;;10.10;70.20;;;;;;4967650;28;20419;-80
2022/03/14 09:23:13;;;;;;;0.90;0.70;;;10.10;69.80;;;;;;4968384;28;20027;-80
2022/03/14 09:25:39;;;;;;;1.52;0.70;;;10.00;69.60;;;;;;4968095;28;20125;-79
2022/03/14 09:28:04;;;;;;;0.68;0.60;;;10.00;68.30;;;;;;4965227;28;20035;-81
2022/03/14 09:30:30;;;;;;;0.73;0.70;;;9.90;68.90;;;;;;4967839;28;20031;-80
2022/03/14 09:32:56;;;;;;;6.20;1.27;;;10.00;69.20;;;;;;4968695;28;20466;-79
2022/03/14 09:35:24;;;;;;;1.48;0.63;;;10.20;66.10;;;;;;4966210;28;20038;-78
2022/03/14 09:37:50;;;;;;;1.15;0.68;;;10.30;66.60;;;;;;4967745;28;20026;-79
2022/03/14 09:40:22;;;;;;;4.30;1.00;;;10.40;65.70;;;;;;4965959;28;20053;-81
2022/03/14 09:42:53;;;;;;;0.80;0.80;;;10.50;65.80;;;;;;4967282;28;20033;-81
2022/03/14 09:45:20;;;;;;;0.77;0.77;;;10.40;65.80;;;;;;4969023;28;20462;-82
2022/03/14 09:47:51;;;;;;;1.00;0.82;;;10.70;64.00;;;;;;4968986;28;20442;-79
2022/03/14 09:50:34;;;;;;;1.20;0.70;;;10.90;64.80;;;;;;4967775;28;20041;-78
2022/03/14 09:53:07;;;;;;;2.25;0.98;;;10.90;63.80;;;;;;4983657;28;20030;-80
2022/03/14 09:55:41;;;;;;;2.42;1.05;;;10.80;61.60;;;;;;4971601;28;20055;-77
2022/03/14 09:58:16;;;;;;;2.20;1.13;;;10.80;60.90;;;;;;4971316;28;20106;-77
2022/03/14 10:00:44;;;;;;;0.88;0.70;;;10.70;63.60;;;;;;4970659;28;20038;-77
2022/03/14 10:03:11;;;;;;;1.00;0.70;;;10.50;61.20;;;;;;4972319;28;20486;-78
2022/03/14 10:05:37;;;;;;;1.88;0.75;;;10.70;62.10;;;;;;4970091;28;20077;-78
2022/03/14 10:08:03;;;;;;;1.10;0.80;;;10.80;60.20;;;;;;4971835;28;20031;-78
2022/03/14 10:10:29;;;;;;;2.70;0.93;;;10.90;59.00;;;;;;4971737;28;20039;-78
2022/03/14 10:12:57;;;;;;;1.23;0.80;;;11.00;60.30;;;;;;4972218;28;20038;-79
2022/03/14 10:15:25;;;;;;;1.00;0.80;;;11.30;59.90;;;;;;4971565;28;20125;-78
2022/03/14 10:17:52;;;;;;;0.63;0.63;;;11.70;59.50;;;;;;4969059;28;20038;-79
2022/03/14 10:20:18;;;;;;;1.42;0.77;;;11.60;57.60;;;;;;4968544;28;20113;-78
2022/03/14 10:22:44;;;;;;;1.80;0.80;;;11.80;60.60;;;;;;4971673;28;20162;-77
2022/03/14 10:25:18;;;;;;;3.10;0.85;;;11.90;59.30;;;;;;4971011;28;20030;-78
2022/03/14 10:27:55;;;;;;;1.45;0.60;;;11.90;57.90;;;;;;4970130;28;20475;-79
2022/03/14 10:30:29;;;;;;;1.02;0.70;;;11.90;55.10;;;;;;4967363;28;20482;-77
2022/03/14 10:33:11;;;;;;;2.97;0.50;;;11.60;53.60;;;;;;4970763;28;20034;-78
2022/03/14 10:35:39;;;;;;;1.10;0.52;;;11.50;55.10;;;;;;4969679;28;20027;-77
2022/03/14 10:38:08;;;;;;;0.60;0.40;;;11.60;54.70;;;;;;4970539;28;20034;-77
2022/03/14 10:40:41;;;;;;;0.40;0.40;;;11.50;53.80;;;;;;4970974;28;20121;-77
2022/03/14 10:43:28;;;;;;;0.50;0.50;;;11.70;54.50;;;;;;4969645;28;20089;-79
2022/03/14 10:45:58;;;;;;;2.38;0.50;;;11.40;55.10;;;;;;4971133;28;20474;-77
2022/03/14 10:48:36;;;;;;;1.95;0.85;;;11.50;55.10;;;;;;4970387;28;20090;-78
2022/03/14 10:51:04;;;;;;;1.13;0.77;;;11.50;56.00;;;;;;4966188;28;20184;-78
2022/03/14 10:53:29;;;;;;;0.77;0.57;;;11.50;54.50;;;;;;4969333;28;20467;-78
2022/03/14 10:56:00;;;;;;;1.10;0.50;;;11.50;54.70;;;;;;4970371;28;20033;-78
2022/03/14 10:58:33;;;;;;;0.85;0.57;;;11.70;53.50;;;;;;4970390;28;20113;-79
2022/03/14 11:01:02;;;;;;;1.85;0.50;;;12.10;51.60;;;;;;4967600;28;20570;-79
2022/03/14 11:03:28;;;;;;;3.03;0.50;;;12.50;49.00;;;;;;4970892;28;20047;-77
2022/03/14 11:05:58;;;;;;;1.20;0.73;;;13.20;47.70;;;;;;4969323;28;20031;-77
2022/03/14 11:08:26;;;;;;;2.67;0.57;;;13.50;45.30;;;;;;4970377;28;20039;-77
2022/03/14 11:10:52;;;;;;;0.50;0.50;;;13.20;44.20;;;;;;4970420;28;20286;-79
2022/03/14 11:13:19;;;;;;;1.73;0.70;;;12.90;45.50;;;;;;4970925;28;20038;-77
2022/03/14 11:15:45;;;;;;;1.58;0.70;;;13.20;46.80;;;;;;4969116;28;20022;-78
2022/03/14 11:18:11;;;;;;;1.98;0.93;;;13.40;44.80;;;;;;4968257;28;20038;-77
2022/03/14 11:20:38;;;;;;;1.27;0.60;;;13.30;44.30;;;;;;4969610;28;20030;-78
2022/03/14 11:23:05;;;;;;;0.88;0.80;;;13.50;43.40;;;;;;4969497;28;20643;-77
2022/03/14 11:25:31;;;;;;;1.13;0.60;;;13.60;43.30;;;;;;4970264;28;20153;-77
2022/03/14 11:27:57;;;;;;;1.88;0.68;;;13.40;43.40;;;;;;4970202;28;20039;-78
2022/03/14 11:30:25;;;;;;;1.27;0.63;;;13.10;43.10;;;;;;4969974;28;20034;-78
2022/03/14 11:32:51;;;;;;;0.50;0.50;;;12.80;44.00;;;;;;4970615;28;20425;-77
2022/03/14 11:35:18;;;;;;;1.25;0.60;;;12.70;43.60;;;;;;4967705;28;20026;-77
2022/03/14 11:37:46;;;;;;;1.88;0.70;;;12.90;45.20;;;;;;4968865;28;20686;-77
2022/03/14 11:40:14;;;;;;;1.25;0.55;;;12.80;43.90;;;;;;4970511;28;20453;-77
2022/03/14 11:42:40;;;;;;;1.52;0.60;;;12.80;45.60;;;;;;4966230;28;20033;-77
2022/03/14 11:45:07;;;;;;;1.52;0.70;;;12.90;46.50;;;;;;4968668;28;20023;-77
2022/03/14 11:47:33;;;;;;;1.48;0.68;;;13.70;42.70;;;;;;4968763;28;20023;-77
2022/03/14 11:50:00;;;;;;;4.35;1.35;;;14.00;40.60;;;;;;4969480;28;20033;-77
2022/03/14 11:52:42;;;;;;;1.23;0.63;;;14.60;40.40;;;;;;4969987;28;20133;-76
2022/03/14 11:55:20;;;;;;;1.42;0.90;;;15.00;39.30;;;;;;4984353;28;20046;-77
2022/03/14 11:57:47;;;;;;;0.70;0.63;;;15.60;38.40;;;;;;4970542;28;20027;-77
2022/03/14 12:00:22;;;;;;;1.40;0.70;;;15.40;37.00;;;;;;4967321;28;20047;-77
2022/03/14 12:02:48;;;;;;;0.70;0.70;;;15.00;37.80;;;;;;4967742;28;20893;-77
2022/03/14 12:05:20;;;;;;;0.85;0.80;;;16.10;36.80;;;;;;4966874;28;20042;-77
2022/03/14 12:07:45;;;;;;;1.45;0.70;;;15.50;35.70;;;;;;4965972;28;20015;-77
2022/03/14 12:10:32;;;;;;;0.85;0.60;;;15.30;35.00;;;;;;4962483;28;20094;-77
2022/03/14 12:12:59;;;;;;;1.55;0.80;;;15.90;35.70;;;;;;4968526;28;20053;-77
2022/03/14 12:15:38;;;;;;;2.25;0.85;;;15.80;35.30;;;;;;4969856;28;20031;-77
2022/03/14 12:18:22;;;;;;;1.83;1.25;;;16.10;36.80;;;;;;4967661;28;20035;-79
2022/03/14 12:20:55;;;;;;;1.77;0.77;;;16.10;36.10;;;;;;4968995;28;20598;-78
2022/03/14 12:23:28;;;;;;;2.65;0.75;;;16.40;34.00;;;;;;4968926;28;20057;-78
2022/03/14 12:25:55;;;;;;;2.30;0.80;;;17.10;33.20;;;;;;4964854;28;20042;-78
2022/03/14 12:28:31;;;;;;;1.30;1.00;;;16.20;34.00;;;;;;4965115;28;20039;-78
2022/03/14 12:31:18;;;;;;;1.73;0.80;;;16.60;35.80;;;;;;4964257;28;20483;-77
2022/03/14 12:33:45;;;;;;;2.05;0.95;;;16.90;33.00;;;;;;4968646;28;20039;-78
2022/03/14 12:36:23;;;;;;;2.55;1.30;;;17.10;32.50;;;;;;4968337;28;20030;-78
2022/03/14 12:39:09;;;;;;;1.40;0.82;;;17.20;33.70;;;;;;4965251;28;20030;-78
2022/03/14 12:41:37;;;;;;;1.60;0.70;;;17.70;32.80;;;;;;4965826;28;20030;-77
2022/03/14 12:44:23;;;;;;;2.28;1.15;;;18.10;30.20;;;;;;4966471;28;20034;-78
2022/03/14 12:46:52;;;;;;;1.00;0.70;;;16.60;32.60;;;;;;4965189;28;20451;-78
2022/03/14 12:49:50;;;;;;;3.40;1.08;;;17.30;32.40;;;;;;4964775;28;20094;-79